Time;durP1;ratioP1;P1;durP2;ratioP2;P2;SDS_P1;SDS_P2;PMS_P1;PMS_P2;Temp;Humidity;BMP_temperature;BMP_pressure;BME280_temperature;BME280_humidity;BME280_pressure;Samples;Min_cycle;Max_cycle;Signal;HPM_P1;HPM_P2
2022/12/12 00:00:23;;;;;;;24.37;12.33;;;1.20;99.90;;;;;;5093067;28;20179;-72
2022/12/12 00:02:48;;;;;;;23.20;12.23;;;1.20;99.90;;;;;;5093219;28;20263;-72
2022/12/12 00:05:16;;;;;;;21.73;12.00;;;1.30;99.90;;;;;;5093325;28;20633;-72
2022/12/12 00:07:41;;;;;;;21.67;12.23;;;1.30;99.90;;;;;;5093331;28;20633;-72
2022/12/12 00:10:08;;;;;;;22.50;12.10;;;1.30;99.90;;;;;;5091877;28;20220;-72
2022/12/12 00:12:34;;;;;;;21.93;12.27;;;1.20;99.90;;;;;;5093050;28;20691;-73
2022/12/12 00:15:00;;;;;;;19.27;12.17;;;1.20;99.90;;;;;;5092954;28;20218;-72
2022/12/12 00:17:26;;;;;;;21.13;12.07;;;1.30;99.90;;;;;;5093303;28;20642;-72
2022/12/12 00:19:51;;;;;;;25.73;12.60;;;1.20;99.90;;;;;;5093143;28;20683;-72
2022/12/12 00:22:17;;;;;;;23.13;11.97;;;1.20;99.90;;;;;;5093243;28;20658;-72
2022/12/12 00:24:43;;;;;;;22.00;12.23;;;1.10;99.90;;;;;;5093211;28;20175;-72
2022/12/12 00:27:08;;;;;;;19.83;11.60;;;1.00;99.90;;;;;;5093229;28;20203;-71
2022/12/12 00:29:34;;;;;;;22.77;12.30;;;1.00;99.90;;;;;;5096817;28;20240;-71
2022/12/12 00:32:00;;;;;;;23.97;12.23;;;0.90;99.90;;;;;;5097044;28;20170;-71
2022/12/12 00:34:25;;;;;;;24.27;12.67;;;0.90;99.90;;;;;;5097159;28;20174;-71
2022/12/12 00:36:51;;;;;;;20.30;12.70;;;0.90;99.90;;;;;;5097180;28;20187;-71
2022/12/12 00:39:18;;;;;;;27.03;12.87;;;0.80;99.90;;;;;;5097082;28;20249;-71
2022/12/12 00:41:44;;;;;;;27.47;13.40;;;0.80;99.90;;;;;;5097109;28;20164;-71
2022/12/12 00:44:10;;;;;;;23.13;12.60;;;0.80;99.90;;;;;;5096654;28;20176;-71
2022/12/12 00:46:36;;;;;;;26.20;12.40;;;0.70;99.90;;;;;;5096781;28;20160;-72
2022/12/12 00:49:02;;;;;;;21.80;13.07;;;0.60;99.90;;;;;;5096958;28;20204;-72
2022/12/12 00:51:29;;;;;;;24.17;12.07;;;0.60;99.90;;;;;;5096986;28;20168;-72
2022/12/12 00:53:56;;;;;;;24.90;12.60;;;0.60;99.90;;;;;;5096956;28;20170;-71
2022/12/12 00:56:23;;;;;;;20.97;12.23;;;0.50;99.90;;;;;;5096778;28;20194;-72
2022/12/12 00:58:49;;;;;;;23.17;12.63;;;0.50;99.90;;;;;;5096297;28;20254;-72
2022/12/12 01:01:22;;;;;;;19.77;11.37;;;0.40;99.90;;;;;;5096618;28;20164;-72
2022/12/12 01:03:48;;;;;;;21.47;12.87;;;0.50;99.90;;;;;;5095424;28;20167;-72
2022/12/12 01:06:14;;;;;;;25.23;13.23;;;0.40;99.90;;;;;;5096609;28;20187;-71
2022/12/12 01:08:40;;;;;;;23.57;13.13;;;0.40;99.90;;;;;;5096342;28;20172;-72
2022/12/12 01:11:07;;;;;;;24.23;12.00;;;0.40;99.90;;;;;;5096101;28;20214;-71
2022/12/12 01:13:33;;;;;;;22.23;12.43;;;0.40;99.90;;;;;;5096132;28;20628;-72
2022/12/12 01:15:58;;;;;;;26.23;12.77;;;0.40;99.90;;;;;;5096454;28;20172;-72
2022/12/12 01:18:24;;;;;;;25.03;12.40;;;0.40;99.90;;;;;;5096419;28;20282;-72
2022/12/12 01:20:51;;;;;;;21.07;11.90;;;0.40;99.90;;;;;;5096214;28;20196;-71
2022/12/12 01:23:16;;;;;;;23.63;11.63;;;0.50;99.90;;;;;;5096328;28;20651;-72
2022/12/12 01:25:42;;;;;;;21.27;12.27;;;0.50;99.90;;;;;;5096171;28;20175;-72
2022/12/12 01:28:08;;;;;;;20.47;11.57;;;0.40;99.90;;;;;;5095763;28;20520;-73
2022/12/12 01:30:34;;;;;;;22.10;11.63;;;0.50;99.90;;;;;;5095868;28;20299;-72
2022/12/12 01:33:00;;;;;;;22.63;12.10;;;0.50;99.90;;;;;;5096049;28;20632;-72
2022/12/12 01:35:26;;;;;;;23.33;12.20;;;0.40;99.90;;;;;;5096034;28;20172;-73
2022/12/12 01:37:53;;;;;;;19.97;11.57;;;0.40;99.90;;;;;;5096052;28;20168;-72
2022/12/12 01:40:22;;;;;;;21.63;11.93;;;0.40;99.90;;;;;;5095721;28;20513;-72
2022/12/12 01:42:48;;;;;;;23.67;11.73;;;0.30;99.90;;;;;;5095600;28;20169;-72
2022/12/12 01:46:11;;;;;;;22.60;11.87;;;0.30;99.90;;;;;;5095892;28;20201;-72
2022/12/12 01:48:46;;;;;;;20.93;11.57;;;0.30;99.90;;;;;;5013766;28;20186;-72
2022/12/12 01:51:16;;;;;;;23.30;11.77;;;0.20;99.90;;;;;;5013757;28;20709;-72
2022/12/12 01:53:43;;;;;;;21.80;12.30;;;0.20;99.90;;;;;;5059240;28;20278;-72
2022/12/12 01:56:13;;;;;;;21.73;12.13;;;0.20;99.90;;;;;;5095313;28;20170;-72
2022/12/12 01:58:46;;;;;;;25.27;12.93;;;0.10;99.90;;;;;;5095640;28;20167;-72
2022/12/12 02:01:12;;;;;;;23.33;12.77;;;0.10;99.90;;;;;;5095698;28;20266;-72
2022/12/12 02:03:39;;;;;;;22.77;12.37;;;0.10;99.90;;;;;;5095388;28;20627;-72
2022/12/12 02:06:09;;;;;;;25.67;13.00;;;0.10;99.90;;;;;;5094175;28;20180;-72
2022/12/12 02:08:36;;;;;;;22.47;12.93;;;0.10;99.90;;;;;;5095231;28;20648;-72
2022/12/12 02:11:01;;;;;;;26.57;13.23;;;0.00;99.90;;;;;;5094599;28;20225;-73
2022/12/12 02:13:30;;;;;;;28.03;11.77;;;-0.10;99.90;;;;;;5095488;28;20208;-72
2022/12/12 02:16:30;;;;;;;22.13;12.40;;;-0.10;99.90;;;;;;5095179;28;20688;-72
2022/12/12 02:19:28;;;;;;;19.47;11.10;;;-0.10;99.90;;;;;;5095021;28;20175;-72
2022/12/12 02:22:08;;;;;;;27.20;11.90;;;-0.20;99.90;;;;;;5095397;28;20258;-72
2022/12/12 02:24:57;;;;;;;25.13;12.27;;;-0.20;99.90;;;;;;5094971;28;20171;-72
2022/12/12 02:27:45;;;;;;;24.10;12.57;;;-0.20;99.90;;;;;;5084358;28;20176;-72
2022/12/12 02:30:51;;;;;;;22.57;11.33;;;-0.20;99.90;;;;;;5094793;28;20195;-72
2022/12/12 02:33:46;;;;;;;23.00;12.23;;;-0.30;99.90;;;;;;5067443;28;20202;-72
2022/12/12 02:36:32;;;;;;;23.60;12.93;;;-0.30;99.90;;;;;;5094977;28;20187;-72
2022/12/12 02:39:18;;;;;;;27.17;13.50;;;-0.30;99.90;;;;;;5094563;28;20247;-72
2022/12/12 02:41:52;;;;;;;23.97;11.90;;;-0.30;99.90;;;;;;5095029;28;20217;-72
2022/12/12 02:44:29;;;;;;;20.30;12.30;;;-0.30;99.90;;;;;;5094680;28;20160;-73
2022/12/12 02:47:03;;;;;;;25.77;12.97;;;-0.30;99.90;;;;;;5094775;28;20213;-72
2022/12/12 02:49:48;;;;;;;25.00;12.87;;;-0.40;99.90;;;;;;5094439;28;20199;-73
2022/12/12 02:52:16;;;;;;;27.10;13.57;;;-0.50;99.90;;;;;;5094407;28;20179;-72
2022/12/12 02:54:42;;;;;;;25.27;13.07;;;-0.50;99.90;;;;;;5094155;28;20175;-72
2022/12/12 02:57:18;;;;;;;23.47;12.53;;;-0.50;99.90;;;;;;5094575;28;20172;-73
2022/12/12 02:59:51;;;;;;;24.90;12.20;;;-0.50;99.90;;;;;;5094430;28;20175;-71
2022/12/12 03:02:29;;;;;;;27.67;13.47;;;-0.50;99.90;;;;;;5094474;28;20168;-72
2022/12/12 03:08:23;;;;;;;26.47;13.13;;;-0.50;99.90;;;;;;5094024;28;20171;-72
2022/12/12 03:10:58;;;;;;;27.07;12.40;;;-0.50;99.90;;;;;;5094112;28;20678;-73
2022/12/12 03:13:32;;;;;;;25.47;13.40;;;-0.60;99.90;;;;;;5094340;28;20182;-72
2022/12/12 03:16:29;;;;;;;28.43;14.03;;;-0.60;99.90;;;;;;5094028;28;20177;-73
2022/12/12 03:19:26;;;;;;;27.43;13.40;;;-0.60;99.90;;;;;;5093911;28;20168;-73
2022/12/12 03:22:00;;;;;;;26.23;14.00;;;-0.60;99.90;;;;;;5094004;28;20172;-73
2022/12/12 03:24:53;;;;;;;28.63;13.60;;;-0.70;99.90;;;;;;5093774;28;20200;-71
2022/12/12 03:27:37;;;;;;;26.40;13.87;;;-0.70;99.90;;;;;;5079585;28;20217;-73
2022/12/12 03:30:05;;;;;;;33.93;14.43;;;-0.60;99.90;;;;;;5093812;28;20215;-73
2022/12/12 03:32:47;;;;;;;28.23;14.53;;;-0.60;99.90;;;;;;5093741;28;20262;-73
2022/12/12 03:35:27;;;;;;;28.13;14.13;;;-0.70;99.90;;;;;;5093764;28;20629;-72
2022/12/12 03:38:03;;;;;;;29.37;13.23;;;-0.70;99.90;;;;;;5093601;28;20176;-73
2022/12/12 03:40:50;;;;;;;27.10;13.77;;;-0.70;99.90;;;;;;5092275;28;20171;-72
2022/12/12 03:43:22;;;;;;;25.07;13.03;;;-0.80;99.90;;;;;;5093760;28;20199;-73
2022/12/12 03:46:12;;;;;;;30.20;14.33;;;-0.80;99.90;;;;;;5093591;28;20171;-73
2022/12/12 03:49:07;;;;;;;28.93;14.67;;;-0.80;99.90;;;;;;5093509;28;20724;-72
2022/12/12 03:51:39;;;;;;;27.93;13.83;;;-0.80;99.90;;;;;;5083991;28;20191;-72
2022/12/12 03:54:21;;;;;;;27.57;13.70;;;-0.80;99.90;;;;;;5093551;28;20174;-73
2022/12/12 03:56:57;;;;;;;27.53;13.47;;;-0.80;99.90;;;;;;5093574;28;20163;-72
2022/12/12 03:59:29;;;;;;;24.33;13.63;;;-0.80;99.90;;;;;;5093411;28;20167;-72
2022/12/12 04:02:02;;;;;;;27.13;14.83;;;-0.80;99.90;;;;;;5092870;28;20164;-73
2022/12/12 04:04:38;;;;;;;26.87;14.10;;;-0.80;99.90;;;;;;5093397;28;20255;-72
2022/12/12 04:07:17;;;;;;;26.20;13.83;;;-0.80;99.90;;;;;;5093146;28;20639;-73
2022/12/12 04:12:59;;;;;;;26.53;14.40;;;-0.90;99.90;;;;;;5093276;28;20258;-73
2022/12/12 04:15:47;;;;;;;25.07;13.77;;;-0.90;99.90;;;;;;5093385;28;20171;-73
2022/12/12 04:18:25;;;;;;;25.57;13.20;;;-0.90;99.90;;;;;;5091972;28;20598;-72
2022/12/12 04:24:12;;;;;;;28.07;14.07;;;-1.00;99.90;;;;;;5093487;28;20700;-73
2022/12/12 04:27:11;;;;;;;26.53;13.83;;;-1.10;99.90;;;;;;5093140;28;20199;-72
2022/12/12 04:29:56;;;;;;;21.40;12.33;;;-1.10;99.90;;;;;;5091405;28;20209;-72
2022/12/12 04:32:51;;;;;;;31.40;14.33;;;-1.10;99.90;;;;;;5078928;28;20316;-72
2022/12/12 04:35:30;;;;;;;27.70;13.30;;;-1.20;99.90;;;;;;5092557;28;20242;-73
2022/12/12 04:38:23;;;;;;;24.07;12.40;;;-1.20;99.90;;;;;;5092887;28;20169;-72
2022/12/12 04:40:53;;;;;;;27.43;13.73;;;-1.20;99.90;;;;;;5089717;28;20191;-71
2022/12/12 04:43:32;;;;;;;26.23;13.93;;;-1.20;99.90;;;;;;5092699;28;20715;-71
2022/12/12 04:46:02;;;;;;;27.67;13.63;;;-1.20;99.90;;;;;;5091319;28;20232;-72
2022/12/12 04:48:46;;;;;;;26.97;13.57;;;-1.20;99.90;;;;;;5092999;28;20585;-73
2022/12/12 04:51:22;;;;;;;24.93;12.93;;;-1.20;99.90;;;;;;5091986;28;20279;-71
2022/12/12 04:53:57;;;;;;;23.00;12.73;;;-1.20;99.90;;;;;;5092503;28;20174;-73
2022/12/12 04:56:28;;;;;;;31.50;13.87;;;-1.10;99.90;;;;;;5092499;28;20220;-74
2022/12/12 04:58:53;;;;;;;24.10;12.40;;;-1.20;99.90;;;;;;5092537;28;20164;-73
2022/12/12 05:01:44;;;;;;;23.30;12.80;;;-1.20;99.90;;;;;;5091262;28;20187;-73
2022/12/12 05:04:24;;;;;;;30.63;14.30;;;-1.10;99.90;;;;;;5092317;28;20180;-73
2022/12/12 05:06:57;;;;;;;25.37;14.00;;;-1.20;99.90;;;;;;5092525;28;20164;-72
2022/12/12 05:09:24;;;;;;;26.37;13.57;;;-1.20;99.90;;;;;;5092423;28;20222;-73
2022/12/12 05:11:49;;;;;;;27.40;13.57;;;-1.20;99.90;;;;;;5091762;28;20223;-73
2022/12/12 05:14:16;;;;;;;23.03;12.20;;;-1.30;99.90;;;;;;5094134;28;20190;-73
2022/12/12 05:16:48;;;;;;;26.53;13.70;;;-1.30;99.90;;;;;;5096164;28;20576;-73
2022/12/12 05:19:14;;;;;;;25.43;12.53;;;-1.30;99.90;;;;;;5095849;28;20176;-73
2022/12/12 05:21:39;;;;;;;27.07;14.77;;;-1.20;99.90;;;;;;5095982;28;20634;-73
2022/12/12 05:24:05;;;;;;;28.20;13.27;;;-1.20;99.90;;;;;;5077717;28;20662;-73
2022/12/12 05:26:32;;;;;;;24.93;12.83;;;-1.20;99.90;;;;;;5096042;28;20170;-72
2022/12/12 05:28:59;;;;;;;29.37;13.27;;;-1.20;99.90;;;;;;5095700;28;20202;-72
2022/12/12 05:31:25;;;;;;;27.57;13.17;;;-1.20;99.90;;;;;;5095514;28;20265;-73
2022/12/12 05:33:51;;;;;;;27.13;12.87;;;-1.10;99.90;;;;;;5095423;28;20637;-73
2022/12/12 05:36:17;;;;;;;28.00;13.40;;;-1.10;99.90;;;;;;5095693;28;20199;-73
2022/12/12 05:38:43;;;;;;;30.50;12.73;;;-1.10;99.90;;;;;;5095779;28;20168;-72
2022/12/12 05:41:09;;;;;;;27.47;12.43;;;-1.10;99.90;;;;;;5095113;28;20684;-72
2022/12/12 05:43:35;;;;;;;26.83;13.63;;;-1.20;99.90;;;;;;5095906;28;20179;-73
2022/12/12 05:46:01;;;;;;;25.80;13.60;;;-1.20;99.90;;;;;;5095270;28;20227;-72
2022/12/12 05:48:27;;;;;;;27.77;13.57;;;-1.20;99.90;;;;;;5095094;28;20201;-73
2022/12/12 05:50:53;;;;;;;28.73;13.20;;;-1.30;99.90;;;;;;5095362;28;20235;-73
2022/12/12 05:53:19;;;;;;;24.57;13.43;;;-1.30;99.90;;;;;;5094982;28;20251;-73
2022/12/12 05:55:45;;;;;;;25.63;13.23;;;-1.20;99.90;;;;;;5095044;28;20571;-73
2022/12/12 05:58:10;;;;;;;26.73;13.63;;;-1.30;99.90;;;;;;5095021;28;20167;-73
2022/12/12 06:00:36;;;;;;;24.43;13.50;;;-1.30;99.90;;;;;;5093822;28;20179;-74
2022/12/12 06:03:02;;;;;;;28.67;13.00;;;-1.30;99.90;;;;;;5093386;28;20193;-73
2022/12/12 06:05:28;;;;;;;25.43;12.73;;;-1.20;99.90;;;;;;5095029;28;20171;-73
2022/12/12 06:07:53;;;;;;;29.80;13.27;;;-1.30;99.90;;;;;;5094435;28;20197;-73
2022/12/12 06:10:19;;;;;;;27.27;13.53;;;-1.30;99.90;;;;;;5094798;28;20213;-73
2022/12/12 06:12:44;;;;;;;26.90;13.50;;;-1.30;99.90;;;;;;5093787;28;20685;-73
2022/12/12 06:15:10;;;;;;;29.80;13.23;;;-1.20;99.90;;;;;;5094801;28;20177;-73
2022/12/12 06:17:36;;;;;;;28.77;14.10;;;-1.20;99.90;;;;;;5094565;28;20170;-73
2022/12/12 06:20:03;;;;;;;24.73;13.17;;;-1.10;99.90;;;;;;5094311;28;20236;-73
2022/12/12 06:22:28;;;;;;;26.47;12.93;;;-1.30;99.90;;;;;;5076361;28;20632;-73
2022/12/12 06:24:54;;;;;;;27.30;13.13;;;-1.30;99.90;;;;;;5093609;28;20200;-73
2022/12/12 06:27:20;;;;;;;23.97;12.77;;;-1.30;99.90;;;;;;5094436;28;20241;-73
2022/12/12 06:29:45;;;;;;;27.90;12.90;;;-1.30;99.90;;;;;;5092789;28;20207;-73
2022/12/12 06:32:11;;;;;;;27.23;12.97;;;-1.30;99.90;;;;;;5093356;28;20224;-73
2022/12/12 06:34:37;;;;;;;31.70;13.57;;;-1.30;99.90;;;;;;5094207;28;20654;-73
2022/12/12 06:37:05;;;;;;;29.63;13.57;;;-1.30;99.90;;;;;;5094366;28;20270;-73
2022/12/12 06:39:31;;;;;;;27.53;12.20;;;-1.30;99.90;;;;;;5093609;28;20183;-72
2022/12/12 06:41:57;;;;;;;26.03;13.17;;;-1.30;99.90;;;;;;5093248;28;20171;-73
2022/12/12 06:44:22;;;;;;;25.83;13.07;;;-1.20;99.90;;;;;;5093975;28;20627;-73
2022/12/12 06:46:48;;;;;;;31.03;13.60;;;-1.20;99.90;;;;;;5093357;28;20174;-73
2022/12/12 06:49:13;;;;;;;31.10;14.63;;;-1.10;99.90;;;;;;5093790;28;20197;-73
2022/12/12 06:51:42;;;;;;;28.23;13.30;;;-1.10;99.90;;;;;;5093810;28;20189;-73
2022/12/12 06:54:13;;;;;;;30.83;14.27;;;-1.10;99.90;;;;;;5093562;28;20178;-74
2022/12/12 06:56:39;;;;;;;28.73;14.77;;;-1.10;99.90;;;;;;5093606;28;20187;-73
2022/12/12 06:59:05;;;;;;;31.03;14.73;;;-1.20;99.90;;;;;;5093208;28;20220;-73
2022/12/12 07:01:31;;;;;;;31.43;14.90;;;-1.20;99.90;;;;;;5093123;28;20170;-74
2022/12/12 07:03:57;;;;;;;30.30;14.23;;;-1.20;99.90;;;;;;5093382;28;20172;-74
2022/12/12 07:06:23;;;;;;;34.47;14.60;;;-1.10;99.90;;;;;;5093023;28;20178;-74
2022/12/12 07:08:50;;;;;;;28.53;14.13;;;-1.10;99.90;;;;;;5093492;28;20671;-73
2022/12/12 07:11:19;;;;;;;31.43;14.17;;;-1.10;99.90;;;;;;5092182;28;20747;-73
2022/12/12 07:13:45;;;;;;;33.13;14.40;;;-1.20;99.90;;;;;;5092694;28;20179;-74
2022/12/12 07:16:11;;;;;;;33.47;14.60;;;-1.10;99.90;;;;;;5093238;28;20221;-74
2022/12/12 07:18:37;;;;;;;28.90;14.10;;;-1.20;99.90;;;;;;5075106;28;20572;-73
2022/12/12 07:21:05;;;;;;;35.43;15.20;;;-1.20;99.90;;;;;;5092764;28;20177;-74
2022/12/12 07:23:31;;;;;;;28.10;14.07;;;-1.20;99.90;;;;;;5092375;28;20183;-74
2022/12/12 07:25:57;;;;;;;30.27;14.17;;;-1.30;99.90;;;;;;5091907;28;20172;-73
2022/12/12 07:28:23;;;;;;;31.87;14.33;;;-1.20;99.90;;;;;;5092918;28;20172;-74
2022/12/12 07:30:49;;;;;;;28.43;13.50;;;-1.30;99.90;;;;;;5090676;28;20741;-74
2022/12/12 07:33:15;;;;;;;32.57;13.17;;;-1.30;99.90;;;;;;5092365;28;20182;-74
2022/12/12 07:35:42;;;;;;;33.83;14.40;;;-1.30;99.90;;;;;;5093052;28;20654;-74
2022/12/12 07:38:09;;;;;;;33.07;14.33;;;-1.20;99.90;;;;;;5092126;28;20175;-74
2022/12/12 07:40:35;;;;;;;30.50;14.40;;;-1.20;99.90;;;;;;5092604;28;20164;-75
2022/12/12 07:43:00;;;;;;;28.30;13.93;;;-1.10;99.90;;;;;;5075008;28;20265;-74
2022/12/12 07:45:26;;;;;;;31.93;14.73;;;-1.10;99.90;;;;;;5091327;28;20595;-74
2022/12/12 07:47:52;;;;;;;28.73;14.13;;;-1.00;99.90;;;;;;5092770;28;20531;-73
2022/12/12 07:50:18;;;;;;;28.13;14.17;;;-0.90;99.90;;;;;;5092734;28;20215;-73
2022/12/12 07:52:44;;;;;;;31.37;13.77;;;-0.90;99.90;;;;;;5092905;28;20164;-74
2022/12/12 07:55:10;;;;;;;31.07;14.20;;;-0.90;99.90;;;;;;5091535;28;20248;-73
2022/12/12 07:57:36;;;;;;;32.10;14.00;;;-0.90;99.90;;;;;;5091619;28;20191;-72
2022/12/12 08:00:04;;;;;;;29.00;13.47;;;-0.90;99.90;;;;;;5091677;28;20192;-73
2022/12/12 08:02:29;;;;;;;30.17;14.33;;;-0.90;99.90;;;;;;5092675;28;20232;-72
2022/12/12 08:04:55;;;;;;;28.73;14.37;;;-0.80;99.90;;;;;;5091985;28;20175;-73
2022/12/12 08:07:21;;;;;;;30.90;13.53;;;-0.70;99.90;;;;;;5092858;28;20179;-72
2022/12/12 08:09:46;;;;;;;27.37;14.23;;;-0.70;99.90;;;;;;5091934;28;20207;-74
2022/12/12 08:12:12;;;;;;;29.23;13.60;;;-0.60;99.90;;;;;;5087094;28;20211;-73
2022/12/12 08:14:37;;;;;;;25.93;13.50;;;-0.50;99.90;;;;;;5074009;28;20195;-74
2022/12/12 08:17:03;;;;;;;29.80;14.30;;;-0.50;99.90;;;;;;5084416;28;20195;-74
2022/12/12 08:19:28;;;;;;;28.30;13.53;;;-0.40;99.90;;;;;;5090258;28;20233;-72
2022/12/12 08:21:54;;;;;;;30.77;14.00;;;-0.50;99.90;;;;;;5090473;28;20864;-73
2022/12/12 08:24:20;;;;;;;28.03;12.63;;;-0.50;99.90;;;;;;5091162;28;20174;-74
2022/12/12 08:26:49;;;;;;;27.10;12.03;;;-0.40;99.90;;;;;;5089449;28;20168;-74
2022/12/12 08:29:14;;;;;;;26.03;12.73;;;-0.50;99.90;;;;;;5085131;28;20204;-73
2022/12/12 08:31:40;;;;;;;23.53;12.20;;;-0.50;99.90;;;;;;5096670;28;20642;-72
2022/12/12 08:34:06;;;;;;;21.97;11.37;;;-0.10;99.90;;;;;;5109281;28;20186;-72
2022/12/12 08:36:33;;;;;;;27.77;13.10;;;0.60;99.90;;;;;;5112364;28;20212;-71
2022/12/12 08:39:08;;;;;;;22.90;11.53;;;1.50;99.90;;;;;;5111516;28;20198;-72
2022/12/12 08:41:36;;;;;;;21.00;12.17;;;2.50;99.90;;;;;;5097806;28;20271;-71
2022/12/12 08:44:02;;;;;;;22.47;11.87;;;3.50;99.90;;;;;;5097722;28;20175;-71
2022/12/12 08:46:28;;;;;;;19.87;10.80;;;4.30;99.90;;;;;;5112011;28;20174;-70
2022/12/12 08:48:54;;;;;;;20.60;11.53;;;5.00;99.90;;;;;;5081904;28;20176;-72
2022/12/12 08:51:20;;;;;;;19.37;11.43;;;5.50;99.90;;;;;;5075200;28;20188;-71
2022/12/12 08:53:47;;;;;;;17.27;10.00;;;5.80;99.20;;;;;;5074924;28;20164;-71
2022/12/12 08:56:14;;;;;;;18.77;11.20;;;5.70;98.60;;;;;;5074537;28;20168;-70
2022/12/12 08:58:40;;;;;;;19.73;10.97;;;5.60;98.00;;;;;;5102310;28;20167;-71
2022/12/12 09:01:10;;;;;;;17.40;11.20;;;5.70;98.30;;;;;;5112376;28;20530;-71
2022/12/12 09:03:36;;;;;;;17.47;11.17;;;5.60;97.50;;;;;;5107579;28;20171;-71
2022/12/12 09:06:03;;;;;;;21.53;11.90;;;5.90;97.50;;;;;;5081507;28;20264;-71
2022/12/12 09:08:29;;;;;;;19.40;10.97;;;5.90;97.30;;;;;;5081806;28;20186;-71
2022/12/12 09:10:54;;;;;;;19.30;12.10;;;6.40;96.90;;;;;;5093668;28;20212;-74
2022/12/12 09:13:20;;;;;;;16.87;11.03;;;6.50;95.50;;;;;;5109201;28;20655;-71
2022/12/12 09:15:49;;;;;;;18.17;11.27;;;6.20;95.90;;;;;;5115701;28;20195;-71
2022/12/12 09:18:15;;;;;;;17.93;11.23;;;6.20;96.70;;;;;;5113444;28;20262;-71
2022/12/12 09:20:41;;;;;;;17.50;11.00;;;6.10;96.30;;;;;;5115990;28;20251;-71
2022/12/12 09:23:07;;;;;;;22.90;12.23;;;6.50;96.60;;;;;;5080527;28;20679;-72
2022/12/12 09:25:34;;;;;;;21.43;11.10;;;7.20;95.30;;;;;;5087636;28;20207;-70
2022/12/12 09:27:59;;;;;;;20.13;10.50;;;7.90;94.10;;;;;;5079001;28;20656;-71
2022/12/12 09:30:25;;;;;;;15.13;10.00;;;8.10;99.90;;;;;;5093237;28;20215;-71
2022/12/12 09:32:51;;;;;;;18.07;10.60;;;8.30;99.90;;;;;;5091484;28;20895;-70
2022/12/12 09:35:16;;;;;;;17.20;10.43;;;8.10;99.90;;;;;;5089854;28;20206;-72
2022/12/12 09:37:42;;;;;;;15.17;10.20;;;8.10;99.90;;;;;;5094305;28;20171;-71
2022/12/12 09:40:15;;;;;;;17.17;10.60;;;8.10;97.20;;;;;;5078050;28;20211;-72
2022/12/12 09:42:48;;;;;;;14.80;10.33;;;7.80;99.90;;;;;;5090958;28;20171;-72
2022/12/12 09:45:14;;;;;;;15.20;9.53;;;8.40;99.90;;;;;;5099571;28;20184;-72
2022/12/12 09:47:44;;;;;;;18.03;11.80;;;8.40;1.00;;;;;;5091022;28;20270;-72
2022/12/12 09:50:20;;;;;;;16.93;11.73;;;8.20;44.80;;;;;;5074882;28;20216;-73
2022/12/12 09:52:47;;;;;;;17.13;10.13;;;7.90;99.90;;;;;;5074045;28;20195;-73
2022/12/12 09:55:19;;;;;;;16.37;10.60;;;7.90;99.90;;;;;;5083018;28;20207;-73
2022/12/12 09:57:53;;;;;;;14.80;9.83;;;8.10;99.90;;;;;;5097854;28;20179;-73
2022/12/12 10:00:18;;;;;;;14.93;10.07;;;7.90;90.70;;;;;;5076259;28;20164;-73
2022/12/12 10:02:56;;;;;;;16.07;10.33;;;8.50;87.40;;;;;;5089985;28;20630;-73
2022/12/12 10:05:43;;;;;;;15.23;10.20;;;8.50;1.00;;;;;;5100320;28;20712;-72
2022/12/12 10:08:20;;;;;;;16.13;10.17;;;8.50;1.00;;;;;;5074831;28;20485;-71
2022/12/12 10:10:51;;;;;;;18.57;10.37;;;9.20;1.00;;;;;;5093326;28;20199;-73
2022/12/12 10:13:24;;;;;;;16.30;9.70;;;9.80;1.00;;;;;;5097858;28;20298;-74
2022/12/12 10:15:55;;;;;;;14.87;9.80;;;9.10;1.00;;;;;;5096548;28;20180;-73
2022/12/12 10:18:33;;;;;;;12.27;9.13;;;9.40;1.00;;;;;;5097560;28;20180;-74
2022/12/12 10:21:00;;;;;;;24.03;9.87;;;9.70;1.00;;;;;;5098077;28;20195;-73
2022/12/12 10:23:52;;;;;;;16.87;9.70;;;10.20;1.00;;;;;;5088955;28;20171;-73
2022/12/12 10:26:26;;;;;;;15.70;9.70;;;10.40;1.00;;;;;;5076945;28;20204;-72
2022/12/12 10:29:13;;;;;;;13.50;9.57;;;10.80;1.00;;;;;;5101634;28;20172;-74
2022/12/12 10:32:24;;;;;;;18.53;10.70;;;10.70;1.00;;;;;;5092455;28;20655;-74
2022/12/12 10:35:05;;;;;;;16.58;11.77;;;11.00;99.90;;;;;;5094025;28;20417;-73
2022/12/12 10:37:39;;;;;;;17.67;10.53;;;12.10;99.90;;;;;;5078177;28;20259;-72
2022/12/12 10:40:24;;;;;;;18.10;10.27;;;11.40;99.90;;;;;;5102954;28;20177;-73
2022/12/12 10:43:24;;;;;;;16.23;10.77;;;11.70;99.90;;;;;;5095621;28;20184;-72
2022/12/12 10:45:56;;;;;;;19.90;10.17;;;11.50;99.90;;;;;;5084836;28;20184;-72
2022/12/12 10:48:21;;;;;;;11.70;8.63;;;10.70;99.90;;;;;;5078461;28;20186;-73
2022/12/12 10:50:54;;;;;;;12.20;8.47;;;10.40;99.90;;;;;;5084354;28;20291;-71
2022/12/12 10:53:20;;;;;;;11.57;8.30;;;9.70;1.00;;;;;;5084709;28;20160;-72
2022/12/12 10:55:54;;;;;;;14.90;8.67;;;8.80;1.00;;;;;;5090934;28;20171;-72
2022/12/12 10:58:26;;;;;;;13.43;8.30;;;8.70;1.00;;;;;;5090828;28;20176;-72
2022/12/12 11:01:02;;;;;;;14.37;9.03;;;9.00;1.00;;;;;;5085546;28;20221;-72
2022/12/12 11:03:34;;;;;;;17.27;12.30;;;9.10;1.00;;;;;;5087230;28;20644;-72
2022/12/12 11:06:05;;;;;;;12.73;9.60;;;8.90;1.00;;;;;;5072639;28;20186;-73
2022/12/12 11:08:34;;;;;;;12.60;8.40;;;8.40;1.00;;;;;;5079726;28;20188;-73
2022/12/12 11:11:04;;;;;;;22.33;13.33;;;8.30;1.00;;;;;;5091411;28;20694;-73
2022/12/12 11:13:37;;;;;;;35.03;21.23;;;8.40;1.00;;;;;;5087101;28;20262;-72
2022/12/12 11:16:16;;;;;;;19.63;11.67;;;8.50;1.00;;;;;;5073998;28;20197;-73
2022/12/12 11:19:05;;;;;;;176.53;112.00;;;9.00;1.00;;;;;;5093035;28;20168;-73
2022/12/12 11:21:34;;;;;;;396.40;237.07;;;9.20;1.00;;;;;;5088815;28;20222;-72
2022/12/12 11:24:06;;;;;;;29.37;22.13;;;9.60;1.00;;;;;;5092038;28;20309;-73
2022/12/12 11:26:44;;;;;;;14.17;9.00;;;9.80;1.00;;;;;;5073772;28;20261;-73
2022/12/12 11:29:25;;;;;;;11.10;8.10;;;9.40;1.00;;;;;;5092757;28;20202;-72
2022/12/12 11:31:50;;;;;;;12.50;8.50;;;9.10;1.00;;;;;;5085931;28;20295;-74
2022/12/12 11:34:17;;;;;;;13.93;8.67;;;8.60;1.00;;;;;;5083038;28;20259;-73
2022/12/12 11:36:42;;;;;;;15.73;10.53;;;8.80;1.00;;;;;;5092383;28;20385;-71
2022/12/12 11:39:35;;;;;;;11.27;7.80;;;8.80;1.00;;;;;;5081698;28;20291;-73
2022/12/12 11:42:15;;;;;;;13.07;8.37;;;9.10;1.00;;;;;;5083498;28;20184;-72
2022/12/12 11:44:43;;;;;;;11.93;8.10;;;9.10;1.00;;;;;;5081103;28;20180;-72
2022/12/12 11:47:18;;;;;;;13.30;9.70;;;8.90;1.00;;;;;;5086379;28;20249;-72
2022/12/12 11:49:48;;;;;;;14.93;8.77;;;9.10;1.00;;;;;;5091493;28;20217;-73
2022/12/12 11:52:22;;;;;;;11.63;8.23;;;9.40;1.00;;;;;;5082355;28;20170;-72
2022/12/12 11:54:47;;;;;;;16.47;9.57;;;9.50;1.00;;;;;;5091700;28;20325;-72
2022/12/12 11:57:32;;;;;;;14.07;9.17;;;9.40;1.00;;;;;;5096967;28;20691;-72
2022/12/12 12:00:18;;;;;;;17.43;8.80;;;9.50;1.00;;;;;;5089121;28;20184;-71
2022/12/12 12:03:03;;;;;;;16.37;9.70;;;10.00;1.00;;;;;;5079332;28;20168;-72
2022/12/12 12:05:45;;;;;;;14.90;9.70;;;9.80;1.00;;;;;;5096277;28;20183;-72
2022/12/12 12:08:11;;;;;;;14.27;9.00;;;9.80;1.00;;;;;;5090974;28;20708;-72
2022/12/12 12:10:50;;;;;;;16.20;10.40;;;9.40;1.00;;;;;;5079969;28;20199;-71
2022/12/12 12:13:43;;;;;;;15.00;9.17;;;9.60;1.00;;;;;;5078317;28;20726;-71
2022/12/12 12:16:24;;;;;;;14.23;9.70;;;8.80;1.00;;;;;;5095158;28;20184;-70
2022/12/12 12:19:23;;;;;;;11.70;7.37;;;8.20;1.00;;;;;;5089963;28;20167;-71
2022/12/12 12:22:28;;;;;;;13.17;8.33;;;8.30;1.00;;;;;;5073818;28;20176;-72
2022/12/12 12:25:00;;;;;;;14.50;8.30;;;7.60;81.20;;;;;;5061668;28;20695;-70
2022/12/12 12:27:48;;;;;;;12.30;8.30;;;7.50;82.20;;;;;;5077651;28;20187;-72
2022/12/12 12:30:21;;;;;;;14.17;8.07;;;7.50;81.10;;;;;;5078411;28;20204;-72
2022/12/12 12:32:52;;;;;;;13.60;8.57;;;7.40;81.60;;;;;;5095189;28;20175;-71
2022/12/12 12:35:18;;;;;;;12.60;8.20;;;7.00;82.40;;;;;;5082668;28;20188;-71
2022/12/12 12:38:12;;;;;;;12.57;6.97;;;6.70;83.90;;;;;;5075848;28;20229;-72
2022/12/12 12:40:44;;;;;;;11.37;6.70;;;6.20;87.00;;;;;;5081823;28;20179;-71
2022/12/12 12:43:37;;;;;;;8.70;6.60;;;5.80;90.10;;;;;;5076278;28;20278;-71
2022/12/12 12:46:02;;;;;;;7.93;6.37;;;5.50;91.00;;;;;;5076704;28;20230;-73
2022/12/12 12:48:33;;;;;;;12.20;7.27;;;5.30;91.30;;;;;;5074623;28;20168;-73
2022/12/12 12:51:02;;;;;;;14.27;6.47;;;4.90;93.20;;;;;;5085398;28;20563;-75
2022/12/12 12:53:40;;;;;;;12.20;6.43;;;4.70;93.40;;;;;;5082125;28;20171;-73
2022/12/12 12:56:28;;;;;;;15.07;7.37;;;4.70;94.40;;;;;;5091350;28;20568;-73
2022/12/12 12:58:58;;;;;;;12.07;6.77;;;4.70;94.90;;;;;;5074631;28;20647;-72
2022/12/12 13:01:49;;;;;;;15.23;6.50;;;4.70;95.00;;;;;;5075189;28;20274;-72
2022/12/12 13:04:43;;;;;;;14.83;7.13;;;4.70;94.70;;;;;;5092981;28;20593;-72
2022/12/12 13:07:25;;;;;;;13.43;7.50;;;4.60;95.10;;;;;;5094940;28;20174;-71
2022/12/12 13:10:07;;;;;;;11.37;7.13;;;4.60;95.50;;;;;;5094478;28;20204;-72